»·PEaware :: N4987R KAVX-L71

N4987R :: KAVX-L71

FLIGHT INFORMATION

Flight Status: Arrived
Operator: Privately registered:
United States
More flights under this callsign
Pilot: Jonathan F. (6622)
Aircraft: CESSNA 172 SKYHAWK
(C172)
More flights by this aircraft type
Origin: KAVX Catalina
United States
Destination: L71 California City Mun
United States
More flights between these airports :: More routes between these airports
Route: +KAVX LIMBO LAX V201 PMD MOLTT L71
File this flight plan on PilotEdge
Remarks:
Altitude:
(Current/Filed)
8,000ft
Speed:
(Current/Filed)
110kts
Departed: 16-Apr-15 04:24 PM
Arrived: 16-Apr-15 05:28 PM
Distance/Time
Traveled:
107nm/1:04
Distance/Time
To Go:
Arrived

Flight Plot

Page will automatically refresh every two minutes.


Map Options




Map Legend


Flown Route
Filed Route
Departure Airport
Arrival Airport
Navaid (VOR, NDB)
Fix

Horizontal Profiles

Position Reports

Time Latitude Longitude Heading Altitude Ground
Speed
16-Apr-15 16:13 33.403183 -118.415534 313 1605ft 0kts
16-Apr-15 16:14 33.403183 -118.415534 313 1605ft 0kts
16-Apr-15 16:15 33.403199 -118.415554 313 1605ft 0kts
16-Apr-15 16:16 33.403207 -118.415565 313 1605ft 0kts
16-Apr-15 16:17 33.403216 -118.415575 313 1605ft 0kts
16-Apr-15 16:18 33.403221 -118.415582 313 1605ft 0kts
16-Apr-15 16:19 33.403225 -118.415587 312 1605ft 0kts
16-Apr-15 16:20 33.403229 -118.415592 312 1605ft 0kts
16-Apr-15 16:21 33.404670 -118.416242 235 1605ft 38kts
16-Apr-15 16:22 33.405084 -118.432877 331 2462ft 81kts
16-Apr-15 16:23 33.429847 -118.434242 343 3499ft 79kts
16-Apr-15 16:24 33.454121 -118.435818 345 4342ft 88kts
16-Apr-15 16:25 33.479206 -118.439884 357 5079ft 104kts
16-Apr-15 16:26 33.510432 -118.443087 351 5610ft 113kts
16-Apr-15 16:27 33.544001 -118.448203 350 5875ft 125kts
16-Apr-15 16:28 33.574214 -118.453516 354 6611ft 110kts
16-Apr-15 16:29 33.600740 -118.455968 347 7484ft 88kts
16-Apr-15 16:30 33.626836 -118.459366 359 7905ft 112kts
16-Apr-15 16:31 33.657237 -118.462523 349 8066ft 110kts
16-Apr-15 16:32 33.688110 -118.467200 359 8046ft 111kts
16-Apr-15 16:33 33.720154 -118.464322 0 7929ft 117kts
16-Apr-15 16:34 33.751258 -118.466814 352 8074ft 103kts
16-Apr-15 16:35 33.781273 -118.463623 20 8052ft 111kts
16-Apr-15 16:36 33.810752 -118.449307 20 7995ft 115kts
16-Apr-15 16:37 33.842158 -118.451071 7 7990ft 114kts
16-Apr-15 16:38 33.872839 -118.442898 11 8026ft 112kts
16-Apr-15 16:39 33.903900 -118.436500 9 8061ft 108kts
16-Apr-15 16:40 33.935681 -118.430421 16 7980ft 113kts
16-Apr-15 16:41 33.965367 -118.417212 15 7996ft 112kts
16-Apr-15 16:42 33.994396 -118.404570 16 8190ft 100kts
16-Apr-15 16:43 34.024070 -118.388848 26 7989ft 115kts
16-Apr-15 16:44 34.051365 -118.372407 24 7966ft 116kts
16-Apr-15 16:45 34.069093 -118.363177 16 8017ft 110kts
16-Apr-15 16:46 34.098411 -118.347550 29 7990ft 110kts
16-Apr-15 16:47 34.127294 -118.333399 16 8038ft 111kts
16-Apr-15 16:48 34.156989 -118.317780 21 7952ft 115kts
16-Apr-15 16:49 34.185196 -118.301223 20 8098ft 106kts
16-Apr-15 16:50 34.215087 -118.287566 23 8009ft 115kts
16-Apr-15 16:51 34.245254 -118.274773 16 7989ft 116kts
16-Apr-15 16:52 34.275165 -118.263401 14 8071ft 109kts
16-Apr-15 16:53 34.304465 -118.250805 19 8046ft 117kts
16-Apr-15 16:54 34.333799 -118.234754 23 8007ft 117kts
16-Apr-15 16:55 34.362194 -118.216931 26 8054ft 109kts
16-Apr-15 16:56 34.389727 -118.198872 25 7999ft 116kts
16-Apr-15 16:57 34.417880 -118.181259 26 8059ft 111kts
16-Apr-15 16:58 34.445962 -118.165407 22 8110ft 111kts
16-Apr-15 16:59 34.474753 -118.149713 26 7997ft 117kts
16-Apr-15 17:00 34.495233 -118.135961 28 8179ft 99kts
16-Apr-15 17:01 34.522734 -118.118538 29 7945ft 125kts
16-Apr-15 17:02 34.552287 -118.105281 13 8169ft 102kts
16-Apr-15 17:03 34.581607 -118.095528 16 8155ft 113kts
16-Apr-15 17:04 34.608854 -118.075677 32 8119ft 115kts
16-Apr-15 17:05 34.634541 -118.089617 310 8145ft 110kts
16-Apr-15 17:06 34.641958 -118.126602 282 8014ft 118kts
16-Apr-15 17:07 34.651612 -118.163843 290 8024ft 113kts
16-Apr-15 17:08 34.664086 -118.198396 318 8104ft 108kts
16-Apr-15 17:09 34.685811 -118.194885 24 8311ft 99kts
16-Apr-15 17:10 34.715030 -118.176488 21 7992ft 119kts
16-Apr-15 17:11 34.738667 -118.164912 23 8202ft 105kts
16-Apr-15 17:12 34.769124 -118.154936 11 8058ft 119kts
16-Apr-15 17:13 34.800754 -118.144634 20 8033ft 112kts
16-Apr-15 17:14 34.823766 -118.134477 12 8240ft 105kts
16-Apr-15 17:15 34.854177 -118.128002 9 8357ft 100kts
16-Apr-15 17:16 34.884992 -118.116075 23 8125ft 115kts
16-Apr-15 17:17 34.914417 -118.099373 19 8004ft 121kts
16-Apr-15 17:18 34.945237 -118.087301 18 8031ft 115kts
16-Apr-15 17:19 34.978794 -118.069223 35 6585ft 130kts
16-Apr-15 17:20 35.002414 -118.036516 69 5032ft 128kts
16-Apr-15 17:21 35.035129 -118.031808 357 3669ft 129kts
16-Apr-15 17:22 35.064569 -118.034589 350 3722ft 111kts
16-Apr-15 17:23 35.098743 -118.041163 355 3861ft 119kts
16-Apr-15 17:24 35.130473 -118.045453 358 3407ft 108kts
16-Apr-15 17:25 35.148607 -118.029140 79 2605ft 98kts
16-Apr-15 17:26 35.152215 -118.010627 155 2457ft 13kts
16-Apr-15 17:27 35.151644 -118.010940 342 2457ft 0kts

Navigation Log

Ident Type
Flight plan parsing failed, navigation log unavailable